sensor_id;sensor_type;location;lat;lon;timestamp;P1;durP1;ratioP1;P2;durP2;ratioP2
42600;SDS011;28229;48.856;9.088;2024-01-10T00:00:02;14.80;;;8.27;;
42600;SDS011;28229;48.856;9.088;2024-01-10T00:02:30;14.57;;;8.63;;
42600;SDS011;28229;48.856;9.088;2024-01-10T00:04:56;17.73;;;8.73;;
42600;SDS011;28229;48.856;9.088;2024-01-10T00:07:22;15.20;;;8.50;;
42600;SDS011;28229;48.856;9.088;2024-01-10T00:09:48;13.77;;;8.90;;
42600;SDS011;28229;48.856;9.088;2024-01-10T00:12:14;15.63;;;8.60;;
42600;SDS011;28229;48.856;9.088;2024-01-10T00:14:41;13.00;;;7.80;;
42600;SDS011;28229;48.856;9.088;2024-01-10T00:17:07;15.63;;;8.07;;
42600;SDS011;28229;48.856;9.088;2024-01-10T00:19:33;14.57;;;8.63;;
42600;SDS011;28229;48.856;9.088;2024-01-10T00:21:59;15.37;;;8.97;;
42600;SDS011;28229;48.856;9.088;2024-01-10T00:24:25;15.57;;;8.87;;
42600;SDS011;28229;48.856;9.088;2024-01-10T00:26:51;14.30;;;8.20;;
42600;SDS011;28229;48.856;9.088;2024-01-10T00:29:17;15.27;;;7.77;;
42600;SDS011;28229;48.856;9.088;2024-01-10T00:31:44;15.13;;;8.63;;
42600;SDS011;28229;48.856;9.088;2024-01-10T00:34:10;18.40;;;9.17;;
42600;SDS011;28229;48.856;9.088;2024-01-10T00:36:36;14.20;;;8.57;;
42600;SDS011;28229;48.856;9.088;2024-01-10T00:39:02;14.67;;;7.73;;
42600;SDS011;28229;48.856;9.088;2024-01-10T00:41:28;14.50;;;8.67;;
42600;SDS011;28229;48.856;9.088;2024-01-10T00:43:54;14.97;;;8.40;;
42600;SDS011;28229;48.856;9.088;2024-01-10T00:46:21;15.37;;;8.67;;
42600;SDS011;28229;48.856;9.088;2024-01-10T00:48:47;16.00;;;9.27;;
42600;SDS011;28229;48.856;9.088;2024-01-10T00:51:13;14.83;;;8.37;;
42600;SDS011;28229;48.856;9.088;2024-01-10T00:53:39;13.27;;;8.37;;
42600;SDS011;28229;48.856;9.088;2024-01-10T00:56:06;13.40;;;8.03;;
42600;SDS011;28229;48.856;9.088;2024-01-10T00:58:32;16.53;;;9.13;;
42600;SDS011;28229;48.856;9.088;2024-01-10T01:00:58;16.23;;;8.40;;
42600;SDS011;28229;48.856;9.088;2024-01-10T01:03:24;14.67;;;8.47;;
42600;SDS011;28229;48.856;9.088;2024-01-10T01:05:51;17.07;;;8.33;;
42600;SDS011;28229;48.856;9.088;2024-01-10T01:08:17;14.80;;;8.60;;
42600;SDS011;28229;48.856;9.088;2024-01-10T01:10:43;13.30;;;8.20;;
42600;SDS011;28229;48.856;9.088;2024-01-10T01:13:11;19.63;;;10.83;;
42600;SDS011;28229;48.856;9.088;2024-01-10T01:15:39;17.30;;;9.93;;
42600;SDS011;28229;48.856;9.088;2024-01-10T01:18:05;16.90;;;9.13;;
42600;SDS011;28229;48.856;9.088;2024-01-10T01:20:32;19.03;;;9.60;;
42600;SDS011;28229;48.856;9.088;2024-01-10T01:22:58;13.90;;;8.27;;
42600;SDS011;28229;48.856;9.088;2024-01-10T01:25:24;15.60;;;8.03;;
42600;SDS011;28229;48.856;9.088;2024-01-10T01:27:51;15.73;;;8.17;;
42600;SDS011;28229;48.856;9.088;2024-01-10T01:30:17;15.70;;;9.07;;
42600;SDS011;28229;48.856;9.088;2024-01-10T01:32:43;13.20;;;8.10;;
42600;SDS011;28229;48.856;9.088;2024-01-10T01:35:09;14.17;;;8.27;;
42600;SDS011;28229;48.856;9.088;2024-01-10T01:37:36;15.73;;;8.77;;
42600;SDS011;28229;48.856;9.088;2024-01-10T01:40:02;15.67;;;8.87;;
42600;SDS011;28229;48.856;9.088;2024-01-10T01:42:28;17.73;;;8.93;;
42600;SDS011;28229;48.856;9.088;2024-01-10T01:44:54;16.27;;;8.13;;
42600;SDS011;28229;48.856;9.088;2024-01-10T01:47:20;16.17;;;9.57;;
42600;SDS011;28229;48.856;9.088;2024-01-10T01:49:47;16.67;;;8.77;;
42600;SDS011;28229;48.856;9.088;2024-01-10T01:52:13;14.07;;;7.57;;
42600;SDS011;28229;48.856;9.088;2024-01-10T01:54:39;15.30;;;8.37;;
42600;SDS011;28229;48.856;9.088;2024-01-10T01:57:06;14.80;;;8.10;;
42600;SDS011;28229;48.856;9.088;2024-01-10T01:59:32;16.63;;;8.50;;
42600;SDS011;28229;48.856;9.088;2024-01-10T02:01:58;14.33;;;8.40;;
42600;SDS011;28229;48.856;9.088;2024-01-10T02:04:28;14.40;;;7.57;;
42600;SDS011;28229;48.856;9.088;2024-01-10T02:06:56;14.00;;;7.93;;
42600;SDS011;28229;48.856;9.088;2024-01-10T02:09:23;16.37;;;8.13;;
42600;SDS011;28229;48.856;9.088;2024-01-10T02:11:49;13.90;;;7.73;;
42600;SDS011;28229;48.856;9.088;2024-01-10T02:14:15;15.53;;;8.57;;
42600;SDS011;28229;48.856;9.088;2024-01-10T02:16:42;15.00;;;8.20;;
42600;SDS011;28229;48.856;9.088;2024-01-10T02:19:18;15.33;;;8.07;;
42600;SDS011;28229;48.856;9.088;2024-01-10T02:21:48;15.63;;;8.03;;
42600;SDS011;28229;48.856;9.088;2024-01-10T02:24:14;16.60;;;8.23;;
42600;SDS011;28229;48.856;9.088;2024-01-10T02:26:40;17.43;;;9.00;;
42600;SDS011;28229;48.856;9.088;2024-01-10T02:29:07;14.73;;;8.03;;
42600;SDS011;28229;48.856;9.088;2024-01-10T02:31:33;14.37;;;8.00;;
42600;SDS011;28229;48.856;9.088;2024-01-10T02:33:59;13.47;;;8.53;;
42600;SDS011;28229;48.856;9.088;2024-01-10T02:36:25;12.60;;;7.50;;
42600;SDS011;28229;48.856;9.088;2024-01-10T02:38:51;13.30;;;7.63;;
42600;SDS011;28229;48.856;9.088;2024-01-10T02:41:18;14.40;;;8.03;;
42600;SDS011;28229;48.856;9.088;2024-01-10T02:43:44;13.60;;;7.53;;
42600;SDS011;28229;48.856;9.088;2024-01-10T02:46:10;14.47;;;7.83;;
42600;SDS011;28229;48.856;9.088;2024-01-10T02:48:36;15.67;;;8.10;;
42600;SDS011;28229;48.856;9.088;2024-01-10T02:51:02;13.87;;;7.93;;
42600;SDS011;28229;48.856;9.088;2024-01-10T02:53:29;12.63;;;7.90;;
42600;SDS011;28229;48.856;9.088;2024-01-10T02:55:56;14.30;;;8.67;;
42600;SDS011;28229;48.856;9.088;2024-01-10T02:58:22;15.97;;;8.00;;
42600;SDS011;28229;48.856;9.088;2024-01-10T03:00:51;14.67;;;8.57;;
42600;SDS011;28229;48.856;9.088;2024-01-10T03:03:17;14.40;;;8.10;;
42600;SDS011;28229;48.856;9.088;2024-01-10T03:05:43;17.20;;;8.43;;
42600;SDS011;28229;48.856;9.088;2024-01-10T03:08:09;14.20;;;8.27;;
42600;SDS011;28229;48.856;9.088;2024-01-10T03:10:35;14.73;;;7.43;;
42600;SDS011;28229;48.856;9.088;2024-01-10T03:13:01;12.43;;;7.90;;
42600;SDS011;28229;48.856;9.088;2024-01-10T03:15:28;12.67;;;7.80;;
42600;SDS011;28229;48.856;9.088;2024-01-10T03:17:54;16.37;;;8.40;;
42600;SDS011;28229;48.856;9.088;2024-01-10T03:20:20;14.43;;;8.30;;
42600;SDS011;28229;48.856;9.088;2024-01-10T03:22:47;16.90;;;8.73;;
42600;SDS011;28229;48.856;9.088;2024-01-10T03:25:13;17.90;;;8.73;;
42600;SDS011;28229;48.856;9.088;2024-01-10T03:27:39;13.17;;;8.17;;
42600;SDS011;28229;48.856;9.088;2024-01-10T03:30:05;17.30;;;9.27;;
42600;SDS011;28229;48.856;9.088;2024-01-10T03:36:20;15.70;;;7.80;;
42600;SDS011;28229;48.856;9.088;2024-01-10T03:38:46;16.50;;;8.27;;
42600;SDS011;28229;48.856;9.088;2024-01-10T03:41:13;13.30;;;8.10;;
42600;SDS011;28229;48.856;9.088;2024-01-10T03:43:40;14.70;;;8.87;;
42600;SDS011;28229;48.856;9.088;2024-01-10T03:46:07;12.30;;;8.23;;
42600;SDS011;28229;48.856;9.088;2024-01-10T03:48:33;14.87;;;8.77;;
42600;SDS011;28229;48.856;9.088;2024-01-10T03:50:59;14.90;;;8.40;;
42600;SDS011;28229;48.856;9.088;2024-01-10T03:53:26;16.20;;;8.47;;
42600;SDS011;28229;48.856;9.088;2024-01-10T03:55:52;16.60;;;8.27;;
42600;SDS011;28229;48.856;9.088;2024-01-10T03:58:18;13.67;;;8.33;;
42600;SDS011;28229;48.856;9.088;2024-01-10T04:00:46;15.40;;;9.00;;
42600;SDS011;28229;48.856;9.088;2024-01-10T04:03:12;15.40;;;8.17;;
42600;SDS011;28229;48.856;9.088;2024-01-10T04:05:38;15.07;;;8.77;;
42600;SDS011;28229;48.856;9.088;2024-01-10T04:08:04;17.37;;;8.30;;
42600;SDS011;28229;48.856;9.088;2024-01-10T04:10:31;16.77;;;8.37;;
42600;SDS011;28229;48.856;9.088;2024-01-10T04:12:57;16.10;;;8.47;;
42600;SDS011;28229;48.856;9.088;2024-01-10T04:15:23;14.77;;;8.40;;
42600;SDS011;28229;48.856;9.088;2024-01-10T04:17:49;15.73;;;8.70;;
42600;SDS011;28229;48.856;9.088;2024-01-10T04:20:16;19.30;;;9.77;;
42600;SDS011;28229;48.856;9.088;2024-01-10T04:22:42;15.07;;;8.23;;
42600;SDS011;28229;48.856;9.088;2024-01-10T04:25:08;19.93;;;9.60;;
42600;SDS011;28229;48.856;9.088;2024-01-10T04:27:34;15.27;;;8.90;;
42600;SDS011;28229;48.856;9.088;2024-01-10T04:30:01;16.87;;;9.00;;
42600;SDS011;28229;48.856;9.088;2024-01-10T04:32:27;16.57;;;8.37;;
42600;SDS011;28229;48.856;9.088;2024-01-10T04:34:53;15.37;;;8.43;;
42600;SDS011;28229;48.856;9.088;2024-01-10T04:37:20;17.37;;;8.43;;
42600;SDS011;28229;48.856;9.088;2024-01-10T04:39:46;16.60;;;8.40;;
42600;SDS011;28229;48.856;9.088;2024-01-10T04:42:13;16.37;;;8.77;;
42600;SDS011;28229;48.856;9.088;2024-01-10T04:44:39;15.00;;;8.70;;
42600;SDS011;28229;48.856;9.088;2024-01-10T04:47:06;14.43;;;8.30;;
42600;SDS011;28229;48.856;9.088;2024-01-10T04:49:33;15.10;;;8.40;;
42600;SDS011;28229;48.856;9.088;2024-01-10T04:51:59;14.30;;;9.07;;
42600;SDS011;28229;48.856;9.088;2024-01-10T04:54:26;16.73;;;8.73;;
42600;SDS011;28229;48.856;9.088;2024-01-10T04:56:52;16.13;;;9.20;;
42600;SDS011;28229;48.856;9.088;2024-01-10T04:59:18;16.60;;;8.67;;
42600;SDS011;28229;48.856;9.088;2024-01-10T05:01:44;15.93;;;9.03;;
42600;SDS011;28229;48.856;9.088;2024-01-10T05:04:11;15.93;;;9.00;;
42600;SDS011;28229;48.856;9.088;2024-01-10T05:06:37;15.80;;;8.50;;
42600;SDS011;28229;48.856;9.088;2024-01-10T05:09:03;17.93;;;9.53;;
42600;SDS011;28229;48.856;9.088;2024-01-10T05:11:30;14.83;;;8.23;;
42600;SDS011;28229;48.856;9.088;2024-01-10T05:13:57;15.70;;;8.73;;
42600;SDS011;28229;48.856;9.088;2024-01-10T05:16:23;15.27;;;9.23;;
42600;SDS011;28229;48.856;9.088;2024-01-10T05:18:49;16.53;;;8.90;;
42600;SDS011;28229;48.856;9.088;2024-01-10T05:21:15;15.17;;;9.40;;
42600;SDS011;28229;48.856;9.088;2024-01-10T05:23:41;16.30;;;8.83;;
42600;SDS011;28229;48.856;9.088;2024-01-10T05:26:10;19.87;;;9.50;;
42600;SDS011;28229;48.856;9.088;2024-01-10T05:28:37;15.47;;;8.83;;
42600;SDS011;28229;48.856;9.088;2024-01-10T05:31:08;15.80;;;8.67;;
42600;SDS011;28229;48.856;9.088;2024-01-10T05:33:52;13.77;;;8.40;;
42600;SDS011;28229;48.856;9.088;2024-01-10T05:36:21;15.07;;;9.03;;
42600;SDS011;28229;48.856;9.088;2024-01-10T05:38:50;15.80;;;9.07;;
42600;SDS011;28229;48.856;9.088;2024-01-10T05:41:19;16.80;;;9.10;;
42600;SDS011;28229;48.856;9.088;2024-01-10T05:43:48;16.07;;;8.80;;
42600;SDS011;28229;48.856;9.088;2024-01-10T05:46:17;17.93;;;8.67;;
42600;SDS011;28229;48.856;9.088;2024-01-10T05:48:45;16.20;;;8.10;;
42600;SDS011;28229;48.856;9.088;2024-01-10T05:51:17;16.20;;;9.20;;
42600;SDS011;28229;48.856;9.088;2024-01-10T05:54:15;16.07;;;9.10;;
42600;SDS011;28229;48.856;9.088;2024-01-10T05:56:44;16.00;;;8.43;;
42600;SDS011;28229;48.856;9.088;2024-01-10T05:59:29;14.93;;;8.30;;
42600;SDS011;28229;48.856;9.088;2024-01-10T06:02:12;16.23;;;8.70;;
42600;SDS011;28229;48.856;9.088;2024-01-10T06:04:54;13.60;;;8.50;;
42600;SDS011;28229;48.856;9.088;2024-01-10T06:07:50;15.57;;;8.90;;
42600;SDS011;28229;48.856;9.088;2024-01-10T06:10:32;18.67;;;9.83;;
42600;SDS011;28229;48.856;9.088;2024-01-10T06:17:04;18.53;;;9.47;;
42600;SDS011;28229;48.856;9.088;2024-01-10T06:19:50;13.43;;;7.93;;
42600;SDS011;28229;48.856;9.088;2024-01-10T06:22:39;14.53;;;8.50;;
42600;SDS011;28229;48.856;9.088;2024-01-10T06:29:29;16.07;;;8.80;;
42600;SDS011;28229;48.856;9.088;2024-01-10T06:36:07;15.90;;;8.73;;
42600;SDS011;28229;48.856;9.088;2024-01-10T06:38:44;16.40;;;9.37;;
42600;SDS011;28229;48.856;9.088;2024-01-10T06:41:24;19.70;;;10.67;;
42600;SDS011;28229;48.856;9.088;2024-01-10T06:44:03;21.80;;;11.90;;
42600;SDS011;28229;48.856;9.088;2024-01-10T06:46:35;17.60;;;10.40;;
42600;SDS011;28229;48.856;9.088;2024-01-10T06:49:19;18.83;;;9.80;;
42600;SDS011;28229;48.856;9.088;2024-01-10T06:52:07;17.80;;;9.33;;
42600;SDS011;28229;48.856;9.088;2024-01-10T06:55:07;16.53;;;9.10;;
42600;SDS011;28229;48.856;9.088;2024-01-10T06:57:43;18.63;;;9.93;;
42600;SDS011;28229;48.856;9.088;2024-01-10T07:03:31;17.33;;;9.10;;
42600;SDS011;28229;48.856;9.088;2024-01-10T07:06:31;15.63;;;8.90;;
42600;SDS011;28229;48.856;9.088;2024-01-10T07:09:22;19.77;;;10.33;;
42600;SDS011;28229;48.856;9.088;2024-01-10T07:12:20;20.93;;;11.03;;
42600;SDS011;28229;48.856;9.088;2024-01-10T07:15:14;19.07;;;10.00;;
42600;SDS011;28229;48.856;9.088;2024-01-10T07:20:54;21.27;;;11.20;;
42600;SDS011;28229;48.856;9.088;2024-01-10T07:23:29;20.43;;;10.77;;
42600;SDS011;28229;48.856;9.088;2024-01-10T07:26:04;18.87;;;10.57;;
42600;SDS011;28229;48.856;9.088;2024-01-10T07:28:57;18.10;;;9.90;;
42600;SDS011;28229;48.856;9.088;2024-01-10T07:31:48;20.63;;;10.27;;
42600;SDS011;28229;48.856;9.088;2024-01-10T07:38:05;17.80;;;10.43;;
42600;SDS011;28229;48.856;9.088;2024-01-10T07:40:39;18.30;;;11.03;;
42600;SDS011;28229;48.856;9.088;2024-01-10T07:43:05;18.23;;;11.37;;
42600;SDS011;28229;48.856;9.088;2024-01-10T07:45:31;18.10;;;11.10;;
42600;SDS011;28229;48.856;9.088;2024-01-10T07:47:59;16.77;;;9.87;;
42600;SDS011;28229;48.856;9.088;2024-01-10T07:50:26;18.23;;;10.90;;
42600;SDS011;28229;48.856;9.088;2024-01-10T07:52:54;20.27;;;11.07;;
42600;SDS011;28229;48.856;9.088;2024-01-10T07:55:20;18.17;;;10.33;;
42600;SDS011;28229;48.856;9.088;2024-01-10T07:57:49;15.83;;;9.53;;
42600;SDS011;28229;48.856;9.088;2024-01-10T08:00:16;16.53;;;9.40;;
42600;SDS011;28229;48.856;9.088;2024-01-10T08:02:46;18.00;;;10.23;;
42600;SDS011;28229;48.856;9.088;2024-01-10T08:05:12;17.63;;;10.53;;
42600;SDS011;28229;48.856;9.088;2024-01-10T08:07:38;19.87;;;11.30;;
42600;SDS011;28229;48.856;9.088;2024-01-10T08:10:05;17.43;;;9.90;;
42600;SDS011;28229;48.856;9.088;2024-01-10T08:12:34;18.63;;;11.00;;
42600;SDS011;28229;48.856;9.088;2024-01-10T08:15:06;20.10;;;10.87;;
42600;SDS011;28229;48.856;9.088;2024-01-10T08:17:35;20.60;;;12.37;;
42600;SDS011;28229;48.856;9.088;2024-01-10T08:20:06;19.67;;;11.73;;
42600;SDS011;28229;48.856;9.088;2024-01-10T08:22:34;21.77;;;12.97;;
42600;SDS011;28229;48.856;9.088;2024-01-10T08:25:04;25.43;;;14.60;;
42600;SDS011;28229;48.856;9.088;2024-01-10T08:27:31;20.43;;;11.93;;
42600;SDS011;28229;48.856;9.088;2024-01-10T08:29:57;24.07;;;12.93;;
42600;SDS011;28229;48.856;9.088;2024-01-10T08:32:25;23.07;;;11.87;;
42600;SDS011;28229;48.856;9.088;2024-01-10T08:35:03;19.67;;;10.87;;
42600;SDS011;28229;48.856;9.088;2024-01-10T08:37:36;22.73;;;12.00;;
42600;SDS011;28229;48.856;9.088;2024-01-10T08:40:03;20.27;;;11.97;;
42600;SDS011;28229;48.856;9.088;2024-01-10T08:42:38;23.87;;;11.73;;
42600;SDS011;28229;48.856;9.088;2024-01-10T08:45:06;30.80;;;11.70;;
42600;SDS011;28229;48.856;9.088;2024-01-10T08:47:35;20.10;;;11.80;;
42600;SDS011;28229;48.856;9.088;2024-01-10T08:50:05;24.30;;;12.37;;
42600;SDS011;28229;48.856;9.088;2024-01-10T08:52:34;21.87;;;11.60;;
42600;SDS011;28229;48.856;9.088;2024-01-10T08:55:20;21.13;;;10.87;;
42600;SDS011;28229;48.856;9.088;2024-01-10T08:58:27;19.57;;;11.73;;
42600;SDS011;28229;48.856;9.088;2024-01-10T09:04:29;19.87;;;10.83;;
42600;SDS011;28229;48.856;9.088;2024-01-10T09:07:16;19.43;;;10.77;;
42600;SDS011;28229;48.856;9.088;2024-01-10T09:10:05;19.00;;;12.03;;
42600;SDS011;28229;48.856;9.088;2024-01-10T09:12:41;20.90;;;11.60;;
42600;SDS011;28229;48.856;9.088;2024-01-10T09:15:46;20.70;;;11.33;;
42600;SDS011;28229;48.856;9.088;2024-01-10T09:18:56;19.37;;;11.33;;
42600;SDS011;28229;48.856;9.088;2024-01-10T09:21:44;23.77;;;11.83;;
42600;SDS011;28229;48.856;9.088;2024-01-10T09:24:55;22.30;;;12.50;;
42600;SDS011;28229;48.856;9.088;2024-01-10T09:27:42;20.80;;;12.27;;
42600;SDS011;28229;48.856;9.088;2024-01-10T09:30:18;24.40;;;12.90;;
42600;SDS011;28229;48.856;9.088;2024-01-10T09:33:07;22.73;;;12.40;;
42600;SDS011;28229;48.856;9.088;2024-01-10T09:35:58;22.43;;;12.37;;
42600;SDS011;28229;48.856;9.088;2024-01-10T09:38:54;28.20;;;13.83;;
42600;SDS011;28229;48.856;9.088;2024-01-10T09:41:53;23.57;;;12.90;;
42600;SDS011;28229;48.856;9.088;2024-01-10T09:44:43;22.93;;;13.00;;
42600;SDS011;28229;48.856;9.088;2024-01-10T09:47:32;23.93;;;13.63;;
42600;SDS011;28229;48.856;9.088;2024-01-10T09:50:59;25.37;;;13.70;;
42600;SDS011;28229;48.856;9.088;2024-01-10T09:53:54;24.43;;;13.97;;
42600;SDS011;28229;48.856;9.088;2024-01-10T09:59:48;24.57;;;14.53;;
42600;SDS011;28229;48.856;9.088;2024-01-10T10:06:47;22.07;;;13.13;;
42600;SDS011;28229;48.856;9.088;2024-01-10T10:09:38;22.43;;;13.03;;
42600;SDS011;28229;48.856;9.088;2024-01-10T10:12:18;20.97;;;12.57;;
42600;SDS011;28229;48.856;9.088;2024-01-10T10:15:04;22.87;;;13.87;;
42600;SDS011;28229;48.856;9.088;2024-01-10T10:17:45;23.50;;;14.40;;
42600;SDS011;28229;48.856;9.088;2024-01-10T10:20:38;23.50;;;14.17;;
42600;SDS011;28229;48.856;9.088;2024-01-10T10:27:10;23.07;;;13.67;;
42600;SDS011;28229;48.856;9.088;2024-01-10T10:30:06;20.23;;;13.63;;
42600;SDS011;28229;48.856;9.088;2024-01-10T10:33:03;24.33;;;14.80;;
42600;SDS011;28229;48.856;9.088;2024-01-10T10:35:44;23.50;;;13.80;;
42600;SDS011;28229;48.856;9.088;2024-01-10T10:38:31;22.23;;;14.23;;
42600;SDS011;28229;48.856;9.088;2024-01-10T10:41:10;23.93;;;14.57;;
42600;SDS011;28229;48.856;9.088;2024-01-10T10:44:09;24.60;;;14.80;;
42600;SDS011;28229;48.856;9.088;2024-01-10T10:46:58;23.90;;;14.53;;
42600;SDS011;28229;48.856;9.088;2024-01-10T10:50:05;27.00;;;15.77;;
42600;SDS011;28229;48.856;9.088;2024-01-10T10:52:54;25.97;;;15.20;;
42600;SDS011;28229;48.856;9.088;2024-01-10T10:55:45;23.43;;;15.23;;
42600;SDS011;28229;48.856;9.088;2024-01-10T10:58:33;23.27;;;14.90;;
42600;SDS011;28229;48.856;9.088;2024-01-10T11:01:20;24.10;;;15.17;;
42600;SDS011;28229;48.856;9.088;2024-01-10T11:05:26;22.03;;;14.53;;
42600;SDS011;28229;48.856;9.088;2024-01-10T11:25:58;24.13;;;15.70;;
42600;SDS011;28229;48.856;9.088;2024-01-10T11:28:34;22.20;;;15.77;;
42600;SDS011;28229;48.856;9.088;2024-01-10T11:34:00;25.23;;;16.47;;
42600;SDS011;28229;48.856;9.088;2024-01-10T11:43:41;25.33;;;16.13;;
42600;SDS011;28229;48.856;9.088;2024-01-10T11:46:18;23.63;;;15.77;;
42600;SDS011;28229;48.856;9.088;2024-01-10T11:49:20;25.20;;;16.00;;
42600;SDS011;28229;48.856;9.088;2024-01-10T11:54:51;24.20;;;16.27;;
42600;SDS011;28229;48.856;9.088;2024-01-10T11:57:41;24.47;;;16.33;;
42600;SDS011;28229;48.856;9.088;2024-01-10T12:00:28;25.20;;;16.60;;
42600;SDS011;28229;48.856;9.088;2024-01-10T12:03:07;25.10;;;16.30;;
42600;SDS011;28229;48.856;9.088;2024-01-10T12:06:15;24.63;;;16.20;;
42600;SDS011;28229;48.856;9.088;2024-01-10T12:09:16;25.07;;;16.37;;
42600;SDS011;28229;48.856;9.088;2024-01-10T12:11:56;26.23;;;16.73;;
42600;SDS011;28229;48.856;9.088;2024-01-10T12:14:33;24.90;;;16.53;;
42600;SDS011;28229;48.856;9.088;2024-01-10T12:17:28;25.00;;;16.40;;
42600;SDS011;28229;48.856;9.088;2024-01-10T12:20:07;24.47;;;16.63;;
42600;SDS011;28229;48.856;9.088;2024-01-10T12:26:26;24.17;;;16.67;;
42600;SDS011;28229;48.856;9.088;2024-01-10T12:29:09;22.67;;;16.13;;
42600;SDS011;28229;48.856;9.088;2024-01-10T12:32:19;26.83;;;16.37;;
42600;SDS011;28229;48.856;9.088;2024-01-10T12:35:24;27.60;;;17.57;;
42600;SDS011;28229;48.856;9.088;2024-01-10T12:38:24;23.30;;;16.10;;
42600;SDS011;28229;48.856;9.088;2024-01-10T12:41:33;26.63;;;16.60;;
42600;SDS011;28229;48.856;9.088;2024-01-10T12:44:07;23.47;;;17.23;;
42600;SDS011;28229;48.856;9.088;2024-01-10T12:53:53;25.77;;;17.03;;
42600;SDS011;28229;48.856;9.088;2024-01-10T13:03:42;23.53;;;16.43;;
42600;SDS011;28229;48.856;9.088;2024-01-10T13:06:19;24.97;;;16.37;;
42600;SDS011;28229;48.856;9.088;2024-01-10T13:09:16;27.67;;;17.50;;
42600;SDS011;28229;48.856;9.088;2024-01-10T13:12:00;24.10;;;17.53;;
42600;SDS011;28229;48.856;9.088;2024-01-10T13:14:57;24.20;;;17.27;;
42600;SDS011;28229;48.856;9.088;2024-01-10T13:18:03;26.60;;;17.13;;
42600;SDS011;28229;48.856;9.088;2024-01-10T13:20:54;24.43;;;16.93;;
42600;SDS011;28229;48.856;9.088;2024-01-10T13:23:38;24.73;;;16.73;;
42600;SDS011;28229;48.856;9.088;2024-01-10T13:26:20;23.50;;;16.73;;
42600;SDS011;28229;48.856;9.088;2024-01-10T13:28:54;22.37;;;16.70;;
42600;SDS011;28229;48.856;9.088;2024-01-10T13:31:44;26.53;;;17.70;;
42600;SDS011;28229;48.856;9.088;2024-01-10T13:41:50;37.50;;;21.30;;
42600;SDS011;28229;48.856;9.088;2024-01-10T13:44:30;24.97;;;17.93;;
42600;SDS011;28229;48.856;9.088;2024-01-10T13:47:08;25.33;;;17.87;;
42600;SDS011;28229;48.856;9.088;2024-01-10T13:52:57;29.73;;;18.87;;
42600;SDS011;28229;48.856;9.088;2024-01-10T13:56:08;27.40;;;17.57;;
42600;SDS011;28229;48.856;9.088;2024-01-10T13:59:21;25.17;;;17.83;;
42600;SDS011;28229;48.856;9.088;2024-01-10T14:01:47;30.53;;;21.57;;
42600;SDS011;28229;48.856;9.088;2024-01-10T14:04:13;32.97;;;22.93;;
42600;SDS011;28229;48.856;9.088;2024-01-10T14:06:39;29.63;;;18.87;;
42600;SDS011;28229;48.856;9.088;2024-01-10T14:09:05;28.07;;;18.93;;
42600;SDS011;28229;48.856;9.088;2024-01-10T14:11:35;26.50;;;18.40;;
42600;SDS011;28229;48.856;9.088;2024-01-10T14:14:01;27.37;;;18.57;;
42600;SDS011;28229;48.856;9.088;2024-01-10T14:16:27;28.70;;;18.33;;
42600;SDS011;28229;48.856;9.088;2024-01-10T14:18:54;24.33;;;18.30;;
42600;SDS011;28229;48.856;9.088;2024-01-10T14:21:22;25.50;;;18.53;;
42600;SDS011;28229;48.856;9.088;2024-01-10T14:23:48;27.47;;;17.87;;
42600;SDS011;28229;48.856;9.088;2024-01-10T14:26:14;28.43;;;18.57;;
42600;SDS011;28229;48.856;9.088;2024-01-10T14:28:41;26.67;;;17.60;;
42600;SDS011;28229;48.856;9.088;2024-01-10T14:31:07;30.73;;;19.30;;
42600;SDS011;28229;48.856;9.088;2024-01-10T14:33:35;29.17;;;18.80;;
42600;SDS011;28229;48.856;9.088;2024-01-10T14:36:02;29.80;;;18.40;;
42600;SDS011;28229;48.856;9.088;2024-01-10T14:38:30;26.13;;;18.10;;
42600;SDS011;28229;48.856;9.088;2024-01-10T14:40:56;29.00;;;18.40;;
42600;SDS011;28229;48.856;9.088;2024-01-10T14:43:22;29.37;;;18.10;;
42600;SDS011;28229;48.856;9.088;2024-01-10T14:45:48;29.73;;;18.23;;
42600;SDS011;28229;48.856;9.088;2024-01-10T14:48:15;26.53;;;17.93;;
42600;SDS011;28229;48.856;9.088;2024-01-10T14:50:41;24.97;;;17.87;;
42600;SDS011;28229;48.856;9.088;2024-01-10T14:53:07;29.30;;;18.90;;
42600;SDS011;28229;48.856;9.088;2024-01-10T14:55:34;30.43;;;20.20;;
42600;SDS011;28229;48.856;9.088;2024-01-10T14:58:00;32.87;;;20.43;;
42600;SDS011;28229;48.856;9.088;2024-01-10T15:00:26;30.13;;;19.67;;
42600;SDS011;28229;48.856;9.088;2024-01-10T15:02:52;32.10;;;20.57;;
42600;SDS011;28229;48.856;9.088;2024-01-10T15:05:18;30.57;;;19.63;;
42600;SDS011;28229;48.856;9.088;2024-01-10T15:07:45;30.47;;;20.70;;
42600;SDS011;28229;48.856;9.088;2024-01-10T15:10:11;29.77;;;19.20;;
42600;SDS011;28229;48.856;9.088;2024-01-10T15:12:37;30.40;;;19.47;;
42600;SDS011;28229;48.856;9.088;2024-01-10T15:15:04;25.90;;;18.30;;
42600;SDS011;28229;48.856;9.088;2024-01-10T15:17:30;33.23;;;20.03;;
42600;SDS011;28229;48.856;9.088;2024-01-10T15:19:56;29.03;;;19.27;;
42600;SDS011;28229;48.856;9.088;2024-01-10T15:22:23;28.00;;;18.30;;
42600;SDS011;28229;48.856;9.088;2024-01-10T15:24:49;29.90;;;18.23;;
42600;SDS011;28229;48.856;9.088;2024-01-10T15:27:15;29.83;;;18.63;;
42600;SDS011;28229;48.856;9.088;2024-01-10T15:29:44;30.30;;;19.27;;
42600;SDS011;28229;48.856;9.088;2024-01-10T15:32:10;31.50;;;19.47;;
42600;SDS011;28229;48.856;9.088;2024-01-10T15:34:36;32.73;;;20.10;;
42600;SDS011;28229;48.856;9.088;2024-01-10T15:37:04;30.67;;;19.20;;
42600;SDS011;28229;48.856;9.088;2024-01-10T15:39:30;29.07;;;19.70;;
42600;SDS011;28229;48.856;9.088;2024-01-10T15:41:56;29.30;;;19.17;;
42600;SDS011;28229;48.856;9.088;2024-01-10T15:44:22;34.47;;;19.57;;
42600;SDS011;28229;48.856;9.088;2024-01-10T15:46:49;29.53;;;18.30;;
42600;SDS011;28229;48.856;9.088;2024-01-10T15:49:15;28.63;;;17.53;;
42600;SDS011;28229;48.856;9.088;2024-01-10T15:51:41;27.23;;;17.47;;
42600;SDS011;28229;48.856;9.088;2024-01-10T15:54:08;26.63;;;16.97;;
42600;SDS011;28229;48.856;9.088;2024-01-10T15:56:34;27.20;;;17.47;;
42600;SDS011;28229;48.856;9.088;2024-01-10T15:59:04;27.40;;;16.67;;
42600;SDS011;28229;48.856;9.088;2024-01-10T16:01:33;29.50;;;17.50;;
42600;SDS011;28229;48.856;9.088;2024-01-10T16:04:00;29.73;;;17.50;;
42600;SDS011;28229;48.856;9.088;2024-01-10T16:06:27;27.47;;;18.07;;
42600;SDS011;28229;48.856;9.088;2024-01-10T16:08:53;30.10;;;17.87;;
42600;SDS011;28229;48.856;9.088;2024-01-10T16:11:19;24.60;;;16.83;;
42600;SDS011;28229;48.856;9.088;2024-01-10T16:13:46;27.37;;;17.47;;
42600;SDS011;28229;48.856;9.088;2024-01-10T16:16:12;26.10;;;16.73;;
42600;SDS011;28229;48.856;9.088;2024-01-10T16:18:38;26.97;;;17.17;;
42600;SDS011;28229;48.856;9.088;2024-01-10T16:21:04;26.40;;;17.17;;
42600;SDS011;28229;48.856;9.088;2024-01-10T16:23:31;28.60;;;17.07;;
42600;SDS011;28229;48.856;9.088;2024-01-10T16:25:57;28.33;;;17.67;;
42600;SDS011;28229;48.856;9.088;2024-01-10T16:28:23;29.30;;;18.03;;
42600;SDS011;28229;48.856;9.088;2024-01-10T16:30:49;35.87;;;20.93;;
42600;SDS011;28229;48.856;9.088;2024-01-10T16:33:16;30.40;;;18.43;;
42600;SDS011;28229;48.856;9.088;2024-01-10T16:35:42;29.00;;;17.17;;
42600;SDS011;28229;48.856;9.088;2024-01-10T16:38:08;29.13;;;17.47;;
42600;SDS011;28229;48.856;9.088;2024-01-10T16:40:34;25.30;;;15.97;;
42600;SDS011;28229;48.856;9.088;2024-01-10T16:43:00;29.63;;;17.10;;
42600;SDS011;28229;48.856;9.088;2024-01-10T16:45:26;27.27;;;16.57;;